Time;durP1;ratioP1;P1;durP2;ratioP2;P2;SDS_P1;SDS_P2;PMS_P1;PMS_P2;Temp;Humidity;BMP_temperature;BMP_pressure;BME280_temperature;BME280_humidity;BME280_pressure;Samples;Min_cycle;Max_cycle;Signal;HPM_P1;HPM_P2
2022/04/23 00:00:23;;;;;;;;;;;14.40;90.40;;;;;;4360497;32;43119;-79
2022/04/23 00:02:50;;;;;;;;;;;14.40;90.50;;;;;;4346575;32;42428;-79
2022/04/23 00:05:17;;;;;;;;;;;14.40;90.60;;;;;;4360054;32;42655;-79
2022/04/23 00:07:44;;;;;;;;;;;14.40;90.70;;;;;;4346628;32;44324;-79
2022/04/23 00:10:11;;;;;;;;;;;14.30;90.70;;;;;;4360151;32;43216;-79
2022/04/23 00:12:39;;;;;;;;;;;14.30;90.70;;;;;;4346911;32;42501;-79
2022/04/23 00:15:07;;;;;;;;;;;14.30;90.70;;;;;;4346967;32;43252;-79
2022/04/23 00:17:34;;;;;;;;;;;14.30;90.70;;;;;;4360313;32;44224;-79
2022/04/23 00:20:02;;;;;;;;;;;14.30;90.60;;;;;;4346450;32;43838;-79
2022/04/23 00:22:29;;;;;;;;;;;14.30;90.60;;;;;;4346978;32;45805;-79
2022/04/23 00:24:57;;;;;;;;;;;14.40;90.70;;;;;;4360109;32;43959;-79
2022/04/23 00:27:24;;;;;;;;;;;14.40;90.60;;;;;;4358653;32;43519;-79
2022/04/23 00:29:52;;;;;;;;;;;14.40;90.70;;;;;;4346777;32;42086;-79
2022/04/23 00:32:19;;;;;;;;;;;14.40;90.70;;;;;;4346863;32;43897;-80
2022/04/23 00:34:46;;;;;;;;;;;14.40;90.60;;;;;;4358936;32;44217;-79
2022/04/23 00:37:13;;;;;;;;;;;14.40;90.60;;;;;;4360190;32;44207;-79
2022/04/23 00:39:41;;;;;;;;;;;14.40;90.60;;;;;;4358990;32;43916;-79
2022/04/23 00:42:11;;;;;;;;;;;14.40;90.50;;;;;;4359695;32;43193;-79
2022/04/23 00:44:38;;;;;;;;;;;14.40;90.60;;;;;;4360142;32;43620;-79
2022/04/23 00:47:07;;;;;;;;;;;14.50;90.70;;;;;;4360380;33;43889;-79
2022/04/23 00:49:34;;;;;;;;;;;14.40;90.60;;;;;;4361714;32;42321;-79
2022/04/23 00:52:01;;;;;;;;;;;14.50;90.50;;;;;;4363761;32;42322;-79
2022/04/23 00:54:28;;;;;;;;;;;14.50;90.60;;;;;;4351045;32;44285;-79
2022/04/23 00:56:56;;;;;;;;;;;14.50;90.60;;;;;;4364611;32;42872;-79
2022/04/23 00:59:23;;;;;;;;;;;14.50;90.60;;;;;;4351227;32;43746;-79
2022/04/23 01:01:53;;;;;;;;;;;14.50;90.60;;;;;;4363566;32;44359;-79
2022/04/23 01:04:20;;;;;;;;;;;14.50;90.60;;;;;;4364733;32;42241;-79
2022/04/23 01:06:48;;;;;;;;;;;14.50;90.60;;;;;;4363695;32;43766;-79
2022/04/23 01:09:15;;;;;;;;;;;14.50;90.60;;;;;;4364476;32;43935;-79
2022/04/23 01:11:42;;;;;;;;;;;14.50;90.70;;;;;;4364612;32;43905;-79
2022/04/23 01:14:10;;;;;;;;;;;14.40;90.60;;;;;;4364973;32;43452;-79
2022/04/23 01:16:37;;;;;;;;;;;14.50;90.60;;;;;;4364820;32;44665;-79
2022/04/23 01:19:05;;;;;;;;;;;14.50;90.60;;;;;;4351245;32;43371;-79
2022/04/23 01:21:32;;;;;;;;;;;14.50;90.60;;;;;;4364789;32;43928;-79
2022/04/23 01:23:59;;;;;;;;;;;14.50;90.60;;;;;;4351521;32;44226;-79
2022/04/23 01:26:27;;;;;;;;;;;14.40;90.60;;;;;;4364760;32;43480;-79
2022/04/23 01:28:55;;;;;;;;;;;14.40;90.60;;;;;;4351370;32;43474;-79
2022/04/23 01:31:23;;;;;;;;;;;14.40;90.60;;;;;;4364457;32;44195;-79
2022/04/23 01:33:50;;;;;;;;;;;14.40;90.60;;;;;;4364449;32;43717;-79
2022/04/23 01:36:17;;;;;;;;;;;14.40;90.60;;;;;;4350891;32;43419;-79
2022/04/23 01:38:44;;;;;;;;;;;14.40;90.70;;;;;;4351324;32;44218;-79
2022/04/23 01:41:12;;;;;;;;;;;14.40;90.50;;;;;;4350884;32;43013;-79
2022/04/23 01:43:39;;;;;;;;;;;14.40;90.60;;;;;;4364293;32;43070;-79
2022/04/23 01:46:06;;;;;;;;;;;14.40;90.70;;;;;;4351224;32;45318;-79
2022/04/23 01:48:34;;;;;;;;;;;14.40;90.60;;;;;;4351317;32;44117;-79
2022/04/23 01:51:01;;;;;;;;;;;14.30;90.60;;;;;;4363600;32;44472;-79
2022/04/23 01:53:28;;;;;;;;;;;14.40;90.60;;;;;;4363992;32;43299;-79
2022/04/23 01:55:55;;;;;;;;;;;14.40;90.60;;;;;;4364129;32;42902;-79
2022/04/23 01:58:22;;;;;;;;;;;14.40;90.60;;;;;;4364196;32;43286;-79
2022/04/23 02:00:50;;;;;;;;;;;14.40;90.70;;;;;;4349571;32;43468;-79
2022/04/23 02:03:17;;;;;;;;;;;14.30;90.80;;;;;;4348514;32;43589;-79
2022/04/23 02:05:44;;;;;;;;;;;14.30;90.70;;;;;;4362019;32;45137;-79
2022/04/23 02:08:16;;;;;;;;;;;14.30;90.70;;;;;;4361814;32;43209;-79
2022/04/23 02:10:43;;;;;;;;;;;14.30;90.80;;;;;;4361675;32;43251;-79
2022/04/23 02:13:10;;;;;;;;;;;14.30;90.90;;;;;;4361839;32;44294;-79
2022/04/23 02:15:39;;;;;;;;;;;14.30;90.80;;;;;;4348502;32;42927;-79
2022/04/23 02:18:08;;;;;;;;;;;14.30;90.80;;;;;;4348223;32;43081;-79
2022/04/23 02:20:35;;;;;;;;;;;14.30;90.90;;;;;;4361792;32;44309;-79
2022/04/23 02:23:05;;;;;;;;;;;14.30;91.00;;;;;;4361505;32;42997;-80
2022/04/23 02:25:36;;;;;;;;;;;14.30;91.00;;;;;;4362111;32;43881;-79
2022/04/23 02:28:03;;;;;;;;;;;14.30;91.00;;;;;;4348759;32;44299;-79
2022/04/23 02:30:32;;;;;;;;;;;14.20;91.00;;;;;;4360619;32;43775;-79
2022/04/23 02:32:59;;;;;;;;;;;14.20;91.00;;;;;;4348411;32;43965;-79
2022/04/23 02:35:26;;;;;;;;;;;14.20;91.00;;;;;;4348009;32;43773;-79
2022/04/23 02:37:56;;;;;;;;;;;14.20;91.00;;;;;;4361502;32;43648;-79
2022/04/23 02:40:24;;;;;;;;;;;14.20;91.00;;;;;;4361781;32;43977;-79
2022/04/23 02:42:51;;;;;;;;;;;14.20;91.00;;;;;;4361196;32;44252;-79
2022/04/23 02:45:20;;;;;;;;;;;14.20;91.10;;;;;;4361608;32;43011;-79
2022/04/23 02:47:48;;;;;;;;;;;14.20;91.10;;;;;;4347831;32;43483;-79
2022/04/23 02:50:16;;;;;;;;;;;14.20;91.00;;;;;;4347750;32;43915;-79
2022/04/23 02:52:43;;;;;;;;;;;14.10;91.10;;;;;;4361069;32;44338;-79
2022/04/23 02:55:11;;;;;;;;;;;14.10;91.00;;;;;;4360944;32;43597;-79
2022/04/23 02:57:41;;;;;;;;;;;14.10;91.10;;;;;;4348133;32;43212;-79
2022/04/23 03:00:10;;;;;;;;;;;14.10;91.10;;;;;;4361048;32;42479;-79
2022/04/23 03:02:37;;;;;;;;;;;14.10;91.20;;;;;;4361066;32;44253;-79
2022/04/23 03:05:11;;;;;;;;;;;14.10;91.10;;;;;;4347690;32;44256;-79
2022/04/23 03:07:39;;;;;;;;;;;14.10;91.20;;;;;;4360825;32;44102;-79
2022/04/23 03:10:07;;;;;;;;;;;14.10;91.10;;;;;;4361108;32;43747;-79
2022/04/23 03:12:38;;;;;;;;;;;14.10;91.20;;;;;;4360401;32;45728;-79
2022/04/23 03:15:06;;;;;;;;;;;14.10;91.20;;;;;;4360693;32;44137;-79
2022/04/23 03:17:34;;;;;;;;;;;14.10;91.10;;;;;;4360685;32;43333;-79
2022/04/23 03:20:02;;;;;;;;;;;14.10;91.10;;;;;;4361129;32;43856;-79
2022/04/23 03:22:29;;;;;;;;;;;14.10;91.20;;;;;;4360666;32;43245;-79
2022/04/23 03:24:56;;;;;;;;;;;14.00;91.00;;;;;;4347457;32;43232;-79
2022/04/23 03:27:23;;;;;;;;;;;14.00;91.10;;;;;;4347721;32;42912;-79
2022/04/23 03:29:50;;;;;;;;;;;14.10;91.10;;;;;;4360973;32;43182;-79
2022/04/23 03:32:17;;;;;;;;;;;14.10;91.10;;;;;;4360958;32;44242;-79
2022/04/23 03:34:44;;;;;;;;;;;14.00;91.10;;;;;;4347229;32;42952;-79
2022/04/23 03:37:11;;;;;;;;;;;14.00;91.10;;;;;;4347123;32;43235;-79
2022/04/23 03:39:38;;;;;;;;;;;14.00;91.10;;;;;;4360698;32;42730;-79
2022/04/23 03:42:06;;;;;;;;;;;14.00;91.00;;;;;;4347025;32;43208;-79
2022/04/23 03:44:33;;;;;;;;;;;14.00;91.10;;;;;;4360332;32;43746;-79
2022/04/23 03:47:01;;;;;;;;;;;14.00;91.10;;;;;;4347331;32;44180;-79
2022/04/23 03:49:29;;;;;;;;;;;14.00;91.10;;;;;;4360583;32;43159;-79
2022/04/23 03:51:57;;;;;;;;;;;13.90;91.00;;;;;;4360216;32;42820;-79
2022/04/23 03:54:24;;;;;;;;;;;14.00;91.00;;;;;;4346823;32;43923;-79
2022/04/23 03:56:52;;;;;;;;;;;13.90;91.00;;;;;;4360637;32;43050;-79
2022/04/23 03:59:23;;;;;;;;;;;13.90;91.00;;;;;;4360045;32;44612;-79
2022/04/23 04:01:54;;;;;;;;;;;13.90;91.00;;;;;;4360319;32;43644;-79
2022/04/23 04:04:22;;;;;;;;;;;13.90;91.00;;;;;;4360703;32;43981;-79
2022/04/23 04:06:49;;;;;;;;;;;13.90;91.00;;;;;;4347124;32;43862;-79
2022/04/23 04:09:16;;;;;;;;;;;13.90;91.00;;;;;;4360406;32;42989;-79
2022/04/23 04:12:01;;;;;;;;;;;13.90;90.90;;;;;;4360790;32;43103;-79
2022/04/23 04:14:32;;;;;;;;;;;13.90;91.00;;;;;;4347273;32;44066;-79
2022/04/23 04:17:00;;;;;;;;;;;13.90;90.90;;;;;;4346560;32;43539;-79
2022/04/23 04:19:28;;;;;;;;;;;13.90;90.90;;;;;;4360258;32;43848;-79
2022/04/23 04:21:57;;;;;;;;;;;13.80;91.00;;;;;;4360216;32;44082;-79
2022/04/23 04:24:25;;;;;;;;;;;13.80;90.90;;;;;;4359622;32;44091;-79
2022/04/23 04:26:52;;;;;;;;;;;13.80;91.00;;;;;;4359968;32;44623;-79
2022/04/23 04:29:19;;;;;;;;;;;13.80;91.00;;;;;;4346381;32;44778;-79
2022/04/23 04:31:49;;;;;;;;;;;13.80;91.00;;;;;;4347129;32;44322;-79
2022/04/23 04:34:18;;;;;;;;;;;13.80;91.00;;;;;;4346370;32;44164;-79
2022/04/23 04:36:46;;;;;;;;;;;13.80;90.80;;;;;;4360227;32;44315;-79
2022/04/23 04:39:14;;;;;;;;;;;13.80;91.00;;;;;;4346412;32;43616;-79
2022/04/23 04:41:41;;;;;;;;;;;13.70;91.00;;;;;;4346359;32;42502;-80
2022/04/23 04:44:09;;;;;;;;;;;13.70;91.00;;;;;;4360169;32;43998;-80
2022/04/23 04:46:36;;;;;;;;;;;13.70;91.00;;;;;;4359685;32;44234;-79
2022/04/23 04:49:04;;;;;;;;;;;13.70;91.00;;;;;;4359571;33;43165;-79
2022/04/23 04:51:31;;;;;;;;;;;13.70;91.00;;;;;;4359847;33;43852;-79
2022/04/23 04:53:58;;;;;;;;;;;13.70;91.00;;;;;;4359820;33;43825;-79
2022/04/23 04:56:25;;;;;;;;;;;13.70;91.00;;;;;;4359541;33;44241;-79
2022/04/23 04:58:52;;;;;;;;;;;13.70;91.10;;;;;;4359975;33;43882;-79
2022/04/23 05:01:19;;;;;;;;;;;13.70;91.00;;;;;;4346362;33;42772;-79
2022/04/23 05:03:46;;;;;;;;;;;13.70;91.00;;;;;;4359948;33;42844;-79
2022/04/23 05:06:13;;;;;;;;;;;13.60;91.00;;;;;;4359485;33;42982;-80
2022/04/23 05:08:41;;;;;;;;;;;13.60;91.00;;;;;;4359445;33;42637;-80
2022/04/23 05:11:09;;;;;;;;;;;13.60;91.10;;;;;;4359713;33;42982;-79
2022/04/23 05:13:39;;;;;;;;;;;13.60;91.10;;;;;;4359447;33;43701;-79
2022/04/23 05:16:06;;;;;;;;;;;13.60;91.10;;;;;;4346406;33;42662;-80
2022/04/23 05:18:34;;;;;;;;;;;13.60;91.10;;;;;;4346555;33;42852;-80
2022/04/23 05:21:01;;;;;;;;;;;13.60;91.10;;;;;;4359569;33;42647;-79
2022/04/23 05:23:28;;;;;;;;;;;13.60;91.20;;;;;;4359902;33;43521;-79
2022/04/23 05:25:55;;;;;;;;;;;13.60;91.20;;;;;;4359772;33;43475;-79
2022/04/23 05:28:22;;;;;;;;;;;13.60;91.30;;;;;;4346374;33;43455;-79
2022/04/23 05:30:49;;;;;;;;;;;13.50;91.30;;;;;;4359312;33;42313;-79
2022/04/23 05:33:17;;;;;;;;;;;13.50;91.30;;;;;;4345868;33;44119;-79
2022/04/23 05:35:44;;;;;;;;;;;13.50;91.30;;;;;;4347191;32;44385;-79
2022/04/23 05:38:11;;;;;;;;;;;13.60;91.40;;;;;;4362154;32;42698;-79
2022/04/23 05:40:38;;;;;;;;;;;13.50;91.40;;;;;;4362057;32;44279;-79
2022/04/23 05:43:05;;;;;;;;;;;13.50;91.50;;;;;;4349027;32;44234;-80
2022/04/23 05:45:32;;;;;;;;;;;13.50;91.50;;;;;;4362000;32;43503;-79
2022/04/23 05:47:59;;;;;;;;;;;13.50;91.60;;;;;;4362065;32;43966;-80
2022/04/23 05:50:26;;;;;;;;;;;13.50;91.60;;;;;;4348672;32;44291;-79
2022/04/23 05:52:53;;;;;;;;;;;13.50;91.60;;;;;;4361926;32;43896;-79
2022/04/23 05:55:20;;;;;;;;;;;13.50;91.60;;;;;;4362092;32;44264;-79
2022/04/23 05:57:47;;;;;;;;;;;13.50;91.70;;;;;;4348830;32;43033;-79
2022/04/23 06:00:15;;;;;;;;;;;13.50;91.70;;;;;;4362195;32;43790;-79
2022/04/23 06:02:41;;;;;;;;;;;13.50;91.70;;;;;;4361672;32;43784;-79
2022/04/23 06:05:10;;;;;;;;;;;13.50;91.70;;;;;;4361757;32;43217;-79
2022/04/23 06:07:37;;;;;;;;;;;13.50;91.80;;;;;;4361932;32;43196;-79
2022/04/23 06:10:06;;;;;;;;;;;13.50;91.80;;;;;;4348462;32;43017;-79
2022/04/23 06:12:34;;;;;;;;;;;13.50;91.80;;;;;;4362175;32;42510;-79
2022/04/23 06:15:01;;;;;;;;;;;13.50;91.90;;;;;;4362122;32;43682;-79
2022/04/23 06:17:28;;;;;;;;;;;13.50;92.00;;;;;;4348286;32;44181;-79
2022/04/23 06:19:55;;;;;;;;;;;13.50;92.00;;;;;;4361585;32;43700;-79
2022/04/23 06:22:23;;;;;;;;;;;13.50;92.20;;;;;;4348150;32;43915;-79
2022/04/23 06:24:51;;;;;;;;;;;13.50;92.10;;;;;;4361804;32;43569;-78
2022/04/23 06:27:18;;;;;;;;;;;13.40;92.10;;;;;;4348511;32;42124;-79
2022/04/23 06:29:45;;;;;;;;;;;13.40;92.10;;;;;;4348109;32;42527;-79
2022/04/23 06:32:12;;;;;;;;;;;13.40;92.20;;;;;;4361486;32;42608;-79
2022/04/23 06:34:40;;;;;;;;;;;13.40;92.30;;;;;;4361508;32;43789;-79
2022/04/23 06:37:08;;;;;;;;;;;13.40;92.40;;;;;;4348566;32;43017;-78
2022/04/23 06:39:35;;;;;;;;;;;13.40;92.30;;;;;;4361363;32;44209;-79
2022/04/23 06:42:02;;;;;;;;;;;13.40;92.40;;;;;;4361147;32;44367;-79
2022/04/23 06:44:29;;;;;;;;;;;13.40;92.40;;;;;;4361200;32;44227;-79
2022/04/23 06:46:56;;;;;;;;;;;13.40;92.50;;;;;;4347585;32;43207;-79
2022/04/23 06:49:26;;;;;;;;;;;13.30;92.60;;;;;;4361486;32;42107;-79
2022/04/23 06:51:56;;;;;;;;;;;13.30;92.60;;;;;;4347736;32;42830;-79
2022/04/23 06:54:23;;;;;;;;;;;13.30;92.90;;;;;;4348132;32;43236;-79
2022/04/23 06:56:51;;;;;;;;;;;13.30;92.70;;;;;;4360274;32;43261;-79
2022/04/23 06:59:18;;;;;;;;;;;13.30;92.80;;;;;;4361079;32;42883;-79
2022/04/23 07:01:45;;;;;;;;;;;13.30;92.90;;;;;;4347884;32;44017;-78
2022/04/23 07:04:12;;;;;;;;;;;13.30;93.00;;;;;;4361466;32;43468;-78
2022/04/23 07:06:40;;;;;;;;;;;13.30;93.00;;;;;;4361167;32;44634;-78
2022/04/23 07:09:07;;;;;;;;;;;13.30;93.00;;;;;;4360831;32;43699;-78
2022/04/23 07:11:34;;;;;;;;;;;13.30;93.10;;;;;;4347951;32;43176;-78
2022/04/23 07:14:01;;;;;;;;;;;13.40;93.20;;;;;;4347565;32;42926;-79
2022/04/23 07:16:28;;;;;;;;;;;13.40;93.20;;;;;;4360878;32;44342;-78
2022/04/23 07:18:55;;;;;;;;;;;13.30;93.10;;;;;;4347417;32;43939;-79
2022/04/23 07:21:22;;;;;;;;;;;13.40;93.20;;;;;;4361032;32;42716;-79
2022/04/23 07:24:05;;;;;;;;;;;13.40;93.40;;;;;;4361253;32;44219;-78
2022/04/23 07:26:37;;;;;;;;;;;13.40;93.40;;;;;;4347963;32;43217;-78
2022/04/23 07:29:07;;;;;;;;;;;13.40;93.30;;;;;;4360612;32;43655;-78
2022/04/23 07:31:36;;;;;;;;;;;13.40;93.50;;;;;;4360977;32;42982;-78
2022/04/23 07:39:36;;;;;;;;;;;13.40;93.40;;;;;;4361017;32;42995;-78
2022/04/23 07:42:05;;;;;;;;;;;13.40;93.50;;;;;;4360836;32;42449;-79
2022/04/23 07:44:33;;;;;;;;;;;13.40;93.40;;;;;;4360817;32;43494;-78
2022/04/23 07:47:00;;;;;;;;;;;13.40;93.60;;;;;;4360659;32;44949;-79
2022/04/23 07:49:27;;;;;;;;;;;13.40;93.60;;;;;;4347625;32;44236;-79
2022/04/23 07:51:54;;;;;;;;;;;13.50;93.70;;;;;;4360882;32;43475;-79
2022/04/23 07:54:22;;;;;;;;;;;13.40;93.70;;;;;;4360819;32;43248;-79
2022/04/23 07:56:49;;;;;;;;;;;13.50;93.70;;;;;;4360121;32;42618;-79
2022/04/23 07:59:17;;;;;;;;;;;13.50;93.60;;;;;;4346673;32;43573;-78
2022/04/23 08:01:44;;;;;;;;;;;13.50;93.70;;;;;;4359989;32;43269;-78
2022/04/23 08:04:11;;;;;;;;;;;13.50;94.00;;;;;;4360255;32;42955;-79
2022/04/23 08:06:38;;;;;;;;;;;13.50;94.00;;;;;;4360646;32;43309;-79
2022/04/23 08:09:05;;;;;;;;;;;13.50;93.80;;;;;;4347207;32;43025;-79
2022/04/23 08:11:32;;;;;;;;;;;13.50;94.00;;;;;;4360027;32;43521;-78
2022/04/23 08:13:59;;;;;;;;;;;13.50;94.10;;;;;;4360458;32;43351;-79
2022/04/23 08:16:27;;;;;;;;;;;13.50;94.00;;;;;;4346729;32;43044;-79
2022/04/23 08:18:55;;;;;;;;;;;13.50;94.00;;;;;;4360209;32;42672;-79
2022/04/23 08:21:22;;;;;;;;;;;13.50;94.00;;;;;;4358980;32;44700;-79
2022/04/23 08:23:49;;;;;;;;;;;13.50;94.20;;;;;;4346578;32;43452;-79
2022/04/23 08:26:16;;;;;;;;;;;13.60;94.10;;;;;;4360378;32;44389;-79
2022/04/23 08:31:30;;;;;;;;;;;13.50;94.30;;;;;;4360567;32;43048;-79
2022/04/23 08:34:03;;;;;;;;;;;13.60;94.20;;;;;;4359875;32;43041;-79
2022/04/23 08:36:36;;;;;;;;;;;13.60;94.50;;;;;;4360149;32;42779;-78
2022/04/23 08:39:04;;;;;;;;;;;13.60;94.70;;;;;;4360193;32;42549;-79
2022/04/23 08:41:32;;;;;;;;;;;13.60;94.70;;;;;;4359786;32;42777;-79
2022/04/23 08:44:06;;;;;;;;;;;13.60;94.80;;;;;;4360193;32;43837;-78
2022/04/23 08:46:34;;;;;;;;;;;13.60;94.80;;;;;;4346730;32;43482;-78
2022/04/23 08:49:04;;;;;;;;;;;13.70;94.90;;;;;;4359801;32;42926;-78
2022/04/23 08:51:33;;;;;;;;;;;13.70;94.90;;;;;;4360126;33;44228;-78
2022/04/23 08:54:05;;;;;;;;;;;13.70;95.10;;;;;;4346375;33;42503;-78
2022/04/23 08:56:32;;;;;;;;;;;13.70;94.80;;;;;;4346205;33;42495;-78
2022/04/23 08:59:00;;;;;;;;;;;13.70;95.30;;;;;;4359541;33;42792;-79
2022/04/23 09:01:30;;;;;;;;;;;13.80;95.20;;;;;;4359368;33;43778;-79
2022/04/23 09:03:58;;;;;;;;;;;13.80;95.20;;;;;;4360028;33;43752;-79
2022/04/23 09:06:39;;;;;;;;;;;13.80;95.40;;;;;;4360029;33;43670;-78
2022/04/23 09:09:10;;;;;;;;;;;13.80;95.40;;;;;;4360267;32;45711;-78
2022/04/23 09:11:39;;;;;;;;;;;13.80;95.30;;;;;;4363098;32;43940;-78
2022/04/23 09:14:07;;;;;;;;;;;13.80;95.20;;;;;;4363020;32;43690;-79
2022/04/23 09:25:12;;;;;;;;;;;13.90;95.20;;;;;;4362851;32;43224;-79
2022/04/23 09:27:43;;;;;;;;;;;13.90;95.30;;;;;;4349555;32;45117;-79
2022/04/23 09:30:11;;;;;;;;;;;13.90;95.40;;;;;;4349399;32;43758;-79
2022/04/23 09:32:55;;;;;;;;;;;13.90;95.40;;;;;;4348961;32;42751;-78
2022/04/23 09:35:22;;;;;;;;;;;13.90;95.30;;;;;;4362722;32;43898;-79
2022/04/23 09:40:36;;;;;;;;;;;14.00;95.60;;;;;;4363368;32;23319;-79
2022/04/23 09:43:05;;;;;;;;;;;14.00;95.80;;;;;;4362600;32;42921;-79
2022/04/23 09:45:34;;;;;;;;;;;14.00;95.70;;;;;;4349228;32;43927;-79
2022/04/23 09:48:10;;;;;;;;;;;14.00;95.90;;;;;;4349083;32;44099;-79
2022/04/23 09:50:38;;;;;;;;;;;14.00;95.90;;;;;;4361995;32;42675;-79
2022/04/23 09:53:12;;;;;;;;;;;14.10;96.10;;;;;;4348586;32;43577;-79
2022/04/23 09:55:39;;;;;;;;;;;14.10;96.30;;;;;;4362463;32;43841;-79
2022/04/23 09:58:07;;;;;;;;;;;14.10;96.00;;;;;;4362356;32;43842;-79
2022/04/23 10:00:39;;;;;;;;;;;14.10;96.20;;;;;;4362284;32;43942;-79
2022/04/23 10:03:07;;;;;;;;;;;14.10;96.00;;;;;;4361670;32;42491;-79
2022/04/23 10:05:52;;;;;;;;;;;14.10;96.30;;;;;;4362229;32;44852;-79
2022/04/23 10:08:23;;;;;;;;;;;14.10;96.40;;;;;;4362341;32;44197;-79
2022/04/23 10:10:55;;;;;;;;;;;14.20;96.40;;;;;;4349448;32;20001;-79
2022/04/23 10:13:23;;;;;;;;;;;14.20;96.30;;;;;;4348844;32;42956;-79
2022/04/23 10:15:51;;;;;;;;;;;14.30;96.40;;;;;;4361514;32;43418;-79
2022/04/23 10:18:18;;;;;;;;;;;14.30;96.10;;;;;;4362224;32;43533;-79
2022/04/23 10:20:54;;;;;;;;;;;14.30;96.30;;;;;;4348650;32;43883;-79
2022/04/23 10:23:40;;;;;;;;;;;14.30;96.40;;;;;;4348323;32;43043;-78
2022/04/23 10:26:24;;;;;;;;;;;14.30;96.80;;;;;;4361649;32;44478;-78
2022/04/23 10:28:51;;;;;;;;;;;14.30;96.60;;;;;;4362059;32;43420;-78
2022/04/23 10:31:19;;;;;;;;;;;14.40;96.60;;;;;;4361765;32;43000;-78
2022/04/23 10:33:51;;;;;;;;;;;14.30;96.20;;;;;;4361925;32;43300;-78
2022/04/23 10:36:20;;;;;;;;;;;14.40;96.50;;;;;;4348532;32;44176;-78
2022/04/23 10:38:53;;;;;;;;;;;14.40;96.60;;;;;;4348196;32;43992;-78
2022/04/23 10:41:22;;;;;;;;;;;14.40;96.90;;;;;;4362461;32;20006;-78
2022/04/23 10:44:02;;;;;;;;;;;14.40;96.80;;;;;;4361299;32;43764;-78
2022/04/23 10:46:48;;;;;;;;;;;14.50;96.90;;;;;;4348454;32;44221;-78
2022/04/23 10:49:22;;;;;;;;;;;14.50;96.60;;;;;;4360168;32;43283;-78
2022/04/23 10:51:50;;;;;;;;;;;14.50;96.80;;;;;;4347807;32;42525;-78
2022/04/23 10:54:19;;;;;;;;;;;14.50;97.10;;;;;;4348403;32;44109;-78
2022/04/23 10:56:57;;;;;;;;;;;14.50;96.70;;;;;;4361615;32;43196;-78
2022/04/23 10:59:42;;;;;;;;;;;14.60;96.60;;;;;;4347807;32;43766;-78
2022/04/23 11:02:19;;;;;;;;;;;14.60;96.90;;;;;;4361145;32;44162;-78
2022/04/23 11:13:28;;;;;;;;;;;14.70;97.10;;;;;;4361654;32;19998;-78
2022/04/23 11:16:08;;;;;;;;;;;14.70;97.10;;;;;;4361175;32;43058;-78
2022/04/23 11:18:36;;;;;;;;;;;14.80;96.80;;;;;;4361278;32;44483;-78
2022/04/23 11:21:06;;;;;;;;;;;14.80;96.90;;;;;;4360783;32;43863;-78
2022/04/23 11:23:35;;;;;;;;;;;14.80;96.90;;;;;;4347409;32;43898;-78
2022/04/23 11:26:02;;;;;;;;;;;14.80;97.00;;;;;;4360651;32;45265;-79
2022/04/23 11:28:29;;;;;;;;;;;14.90;96.80;;;;;;4360633;32;42883;-79
2022/04/23 11:31:01;;;;;;;;;;;14.90;96.70;;;;;;4359473;32;42857;-78
2022/04/23 11:33:29;;;;;;;;;;;14.90;96.80;;;;;;4360001;32;43447;-78
2022/04/23 11:36:00;;;;;;;;;;;15.00;96.80;;;;;;4360739;32;42284;-78
2022/04/23 11:38:28;;;;;;;;;;;15.00;96.70;;;;;;4360845;32;44587;-78
2022/04/23 11:40:55;;;;;;;;;;;15.00;96.60;;;;;;4347549;32;43769;-78
2022/04/23 11:43:29;;;;;;;;;;;15.00;96.60;;;;;;4361264;32;20005;-79
2022/04/23 11:46:00;;;;;;;;;;;15.00;96.50;;;;;;4347395;32;42759;-78
2022/04/23 11:48:28;;;;;;;;;;;15.00;96.50;;;;;;4347671;32;43187;-78
2022/04/23 11:51:05;;;;;;;;;;;15.00;96.70;;;;;;4360425;32;42078;-78
2022/04/23 11:53:49;;;;;;;;;;;15.00;96.70;;;;;;4346911;32;43849;-78
2022/04/23 11:56:20;;;;;;;;;;;15.00;96.60;;;;;;4360834;32;44217;-78
2022/04/23 11:58:48;;;;;;;;;;;15.00;96.50;;;;;;4360280;32;43007;-78
2022/04/23 12:01:15;;;;;;;;;;;15.00;96.50;;;;;;4360527;32;44150;-78
2022/04/23 12:03:49;;;;;;;;;;;15.00;96.50;;;;;;4347049;32;43104;-78
2022/04/23 12:06:16;;;;;;;;;;;15.10;96.50;;;;;;4360541;32;43494;-78
2022/04/23 12:08:43;;;;;;;;;;;15.10;96.30;;;;;;4360291;32;44247;-78
2022/04/23 12:11:20;;;;;;;;;;;15.10;96.40;;;;;;4360262;32;42823;-78
2022/04/23 12:13:48;;;;;;;;;;;15.10;96.40;;;;;;4360778;32;20252;-78
2022/04/23 12:16:35;;;;;;;;;;;15.10;96.40;;;;;;4346569;32;42999;-78
2022/04/23 12:19:05;;;;;;;;;;;15.10;96.40;;;;;;4346947;32;42949;-79
2022/04/23 12:21:33;;;;;;;;;;;15.20;96.30;;;;;;4359890;32;43028;-78
2022/04/23 12:24:01;;;;;;;;;;;15.20;96.20;;;;;;4359984;32;43478;-78
2022/04/23 12:26:34;;;;;;;;;;;15.20;96.40;;;;;;4360292;32;44290;-78
2022/04/23 12:43:17;;;;;;;;;;;15.30;96.30;;;;;;4359998;32;42654;-78
2022/04/23 12:45:44;;;;;;;;;;;15.30;96.10;;;;;;4345991;32;44283;-79
2022/04/23 12:48:12;;;;;;;;;;;15.30;96.10;;;;;;4346397;32;43781;-78
2022/04/23 12:50:39;;;;;;;;;;;15.30;96.00;;;;;;4359794;32;41930;-79
2022/04/23 12:53:06;;;;;;;;;;;15.30;96.00;;;;;;4359920;33;44216;-79
2022/04/23 12:55:37;;;;;;;;;;;15.30;95.90;;;;;;4359563;33;44433;-78
2022/04/23 12:58:04;;;;;;;;;;;15.40;95.90;;;;;;4346367;33;43832;-79
2022/04/23 13:00:33;;;;;;;;;;;15.40;95.70;;;;;;4359462;33;43325;-78
2022/04/23 13:03:11;;;;;;;;;;;15.40;95.60;;;;;;4359401;33;44611;-79
2022/04/23 13:05:38;;;;;;;;;;;15.40;95.60;;;;;;4346829;33;43299;-79
2022/04/23 13:10:51;;;;;;;;;;;15.40;95.50;;;;;;4359907;33;42975;-78
2022/04/23 13:13:18;;;;;;;;;;;15.50;95.50;;;;;;4360067;33;43893;-79
2022/04/23 13:15:45;;;;;;;;;;;15.50;95.50;;;;;;4346310;33;43093;-79
2022/04/23 13:18:12;;;;;;;;;;;15.50;95.50;;;;;;4359964;33;43214;-78
2022/04/23 13:20:39;;;;;;;;;;;15.50;95.50;;;;;;4359527;33;43795;-78
2022/04/23 13:23:06;;;;;;;;;;;15.50;95.70;;;;;;4359870;33;43575;-79
2022/04/23 13:25:33;;;;;;;;;;;15.60;95.60;;;;;;4359732;33;45637;-79
2022/04/23 13:28:00;;;;;;;;;;;15.60;95.40;;;;;;4358388;33;42757;-79
2022/04/23 13:30:27;;;;;;;;;;;15.60;95.30;;;;;;4359388;33;44215;-78
2022/04/23 13:32:54;;;;;;;;;;;15.60;95.30;;;;;;4346192;33;45838;-78
2022/04/23 13:35:21;;;;;;;;;;;15.60;95.20;;;;;;4346107;33;43205;-78
2022/04/23 13:37:48;;;;;;;;;;;15.60;95.10;;;;;;4359343;33;43862;-78
2022/04/23 13:40:15;;;;;;;;;;;15.60;95.10;;;;;;4346445;33;43897;-79
2022/04/23 13:42:48;;;;;;;;;;;15.70;95.20;;;;;;4359299;33;43493;-79
2022/04/23 13:45:16;;;;;;;;;;;15.70;95.10;;;;;;4345989;33;43004;-79
2022/04/23 13:47:44;;;;;;;;;;;15.70;95.10;;;;;;4359791;33;45139;-79
2022/04/23 13:50:11;;;;;;;;;;;15.70;95.10;;;;;;4345930;33;43304;-79
2022/04/23 13:52:38;;;;;;;;;;;15.70;95.00;;;;;;4346374;33;43231;-78
2022/04/23 13:55:05;;;;;;;;;;;15.70;94.90;;;;;;4359685;33;43765;-79
2022/04/23 13:57:32;;;;;;;;;;;15.70;94.70;;;;;;4359840;32;44159;-79
2022/04/23 13:59:59;;;;;;;;;;;15.80;94.70;;;;;;4348577;32;43395;-79
2022/04/23 14:10:43;;;;;;;;;;;15.80;94.60;;;;;;4362080;32;42851;-78
2022/04/23 14:13:10;;;;;;;;;;;15.80;94.50;;;;;;4361802;32;43844;-79
2022/04/23 14:15:37;;;;;;;;;;;15.80;94.50;;;;;;4362799;32;20005;-78
2022/04/23 14:18:06;;;;;;;;;;;15.80;94.40;;;;;;4362190;32;44183;-78
2022/04/23 14:20:33;;;;;;;;;;;15.90;94.60;;;;;;4361661;32;45097;-79
2022/04/23 14:23:01;;;;;;;;;;;15.90;94.50;;;;;;4362011;32;43178;-78
2022/04/23 14:25:33;;;;;;;;;;;15.90;94.50;;;;;;4361634;32;42919;-78
2022/04/23 14:28:03;;;;;;;;;;;15.90;94.50;;;;;;4361456;32;43482;-78
2022/04/23 14:30:30;;;;;;;;;;;15.90;94.50;;;;;;4361870;32;43076;-78
2022/04/23 14:32:57;;;;;;;;;;;15.90;94.30;;;;;;4348208;32;42651;-78
2022/04/23 14:35:24;;;;;;;;;;;15.90;94.20;;;;;;4361553;32;43919;-78
2022/04/23 14:37:51;;;;;;;;;;;16.00;94.20;;;;;;4361680;32;42724;-78
2022/04/23 14:40:20;;;;;;;;;;;16.00;94.20;;;;;;4347967;32;44280;-78
2022/04/23 14:42:48;;;;;;;;;;;16.00;94.40;;;;;;4348244;32;46158;-78
2022/04/23 14:45:18;;;;;;;;;;;16.00;94.30;;;;;;4361717;32;43729;-78
2022/04/23 14:47:45;;;;;;;;;;;16.00;94.30;;;;;;4361165;32;42814;-78
2022/04/23 14:50:13;;;;;;;;;;;16.00;94.20;;;;;;4361418;32;43522;-78
2022/04/23 14:55:31;;;;;;;;;;;16.10;94.00;;;;;;4361113;32;42832;-78
2022/04/23 14:57:59;;;;;;;;;;;16.10;93.50;;;;;;4347930;32;43461;-78
2022/04/23 15:00:26;;;;;;;;;;;16.10;93.50;;;;;;4361291;32;44888;-78
2022/04/23 15:02:54;;;;;;;;;;;16.10;93.40;;;;;;4347633;32;42934;-78
2022/04/23 15:05:22;;;;;;;;;;;16.10;93.30;;;;;;4359958;32;42770;-78
2022/04/23 15:07:49;;;;;;;;;;;16.10;93.30;;;;;;4347361;32;44609;-78
2022/04/23 15:10:16;;;;;;;;;;;16.10;93.30;;;;;;4347891;32;44993;-78
2022/04/23 15:12:44;;;;;;;;;;;16.10;93.30;;;;;;4347516;32;42930;-79
2022/04/23 15:15:12;;;;;;;;;;;16.10;93.40;;;;;;4359806;32;42671;-78
2022/04/23 15:17:42;;;;;;;;;;;16.10;93.60;;;;;;4360684;32;43486;-78
2022/04/23 15:20:09;;;;;;;;;;;16.10;93.30;;;;;;4361272;32;44183;-78